Time;durP1;ratioP1;P1;durP2;ratioP2;P2;SDS_P1;SDS_P2;PMS_P1;PMS_P2;Temp;Humidity;BMP_temperature;BMP_pressure;BME280_temperature;BME280_humidity;BME280_pressure;Samples;Min_cycle;Max_cycle;Signal;HPM_P1;HPM_P2
2023/05/04 00:01:52;;;;;;;9.07;4.20;;;6.30;99.90;;;;;;5053726;28;20388;-77
2023/05/04 00:04:18;;;;;;;11.70;3.90;;;6.20;99.90;;;;;;5037326;28;20052;-79
2023/05/04 00:06:44;;;;;;;14.40;4.90;;;6.20;99.90;;;;;;5054766;28;20041;-76
2023/05/04 00:09:12;;;;;;;9.73;4.35;;;6.10;99.90;;;;;;5055118;28;20132;-78
2023/05/04 00:11:38;;;;;;;11.18;3.70;;;6.10;99.90;;;;;;5055155;28;20059;-76
2023/05/04 00:14:03;;;;;;;11.05;4.20;;;6.00;99.90;;;;;;5053527;28;20044;-77
2023/05/04 00:16:29;;;;;;;10.60;3.55;;;6.00;99.90;;;;;;5054162;28;20124;-78
2023/05/04 00:18:55;;;;;;;13.18;5.18;;;6.00;99.90;;;;;;5054334;28;20512;-79
2023/05/04 00:21:21;;;;;;;11.65;4.20;;;6.00;99.90;;;;;;5053788;28;20040;-77
2023/05/04 00:23:46;;;;;;;12.52;4.95;;;6.00;99.90;;;;;;5054905;28;20511;-76
2023/05/04 00:26:12;;;;;;;13.15;4.57;;;6.00;99.90;;;;;;5054535;28;20045;-77
2023/05/04 00:28:38;;;;;;;12.57;3.95;;;5.90;99.90;;;;;;5037589;28;20045;-77
2023/05/04 00:31:03;;;;;;;12.52;4.65;;;5.90;99.90;;;;;;5054428;28;20202;-78
2023/05/04 00:33:29;;;;;;;13.98;4.80;;;5.90;99.90;;;;;;5054267;28;20052;-77
2023/05/04 00:35:55;;;;;;;14.13;4.97;;;5.80;99.90;;;;;;5036415;28;20049;-76
2023/05/04 00:38:20;;;;;;;11.77;4.80;;;5.80;99.90;;;;;;5054483;28;20064;-78
2023/05/04 00:40:46;;;;;;;10.75;4.63;;;5.80;99.90;;;;;;5054961;28;20051;-78
2023/05/04 00:43:12;;;;;;;12.25;4.13;;;5.80;99.90;;;;;;5053452;28;20087;-76
2023/05/04 00:45:38;;;;;;;14.63;5.03;;;5.70;99.90;;;;;;5053921;28;20091;-77
2023/05/04 00:48:05;;;;;;;14.35;4.88;;;5.70;99.90;;;;;;5087020;28;20148;-72
2023/05/04 00:50:31;;;;;;;15.00;5.63;;;5.70;99.90;;;;;;5056327;28;20056;-73
2023/05/04 00:53:00;;;;;;;12.85;5.00;;;5.70;99.90;;;;;;5055825;28;20131;-72
2023/05/04 00:55:26;;;;;;;13.35;4.28;;;5.70;99.90;;;;;;5056256;28;20113;-72
2023/05/04 00:57:52;;;;;;;14.27;5.20;;;5.70;99.90;;;;;;5054996;28;20142;-72
2023/05/04 01:00:18;;;;;;;16.60;5.80;;;5.60;99.90;;;;;;5054730;28;20044;-72
2023/05/04 01:02:43;;;;;;;16.25;5.38;;;5.60;99.90;;;;;;5054363;28;20053;-74
2023/05/04 01:05:13;;;;;;;12.05;4.32;;;5.60;99.90;;;;;;5054692;28;20048;-73
2023/05/04 01:07:49;;;;;;;14.38;6.45;;;5.60;99.90;;;;;;5056796;28;20496;-73
2023/05/04 01:10:28;;;;;;;14.35;5.15;;;5.60;99.90;;;;;;5055759;28;20045;-74
2023/05/04 01:13:06;;;;;;;13.75;4.95;;;5.60;99.90;;;;;;5054664;28;20088;-73
2023/05/04 01:15:33;;;;;;;11.45;5.18;;;5.60;99.90;;;;;;5053206;28;20138;-73
2023/05/04 01:17:59;;;;;;;;;;;5.60;99.90;;;;;;5054523;28;20120;-73
2023/05/04 01:20:24;;;;;;;13.45;4.53;;;5.50;99.90;;;;;;5054308;28;19974;-73
2023/05/04 01:22:50;;;;;;;17.45;5.45;;;5.50;99.90;;;;;;5053617;28;20049;-74
2023/05/04 01:25:17;;;;;;;17.48;6.00;;;5.50;99.90;;;;;;5052875;28;20045;-72
2023/05/04 01:27:52;;;;;;;14.68;4.95;;;5.50;99.90;;;;;;5054549;28;20048;-73
2023/05/04 01:30:34;;;;;;;17.25;5.25;;;5.50;99.90;;;;;;5056202;28;20354;-71
2023/05/04 01:33:01;;;;;;;18.30;5.22;;;5.50;99.90;;;;;;5053744;28;20118;-72
2023/05/04 01:35:27;;;;;;;16.67;5.40;;;5.50;99.90;;;;;;5056636;28;20045;-73
2023/05/04 01:37:53;;;;;;;12.75;4.80;;;5.50;99.90;;;;;;5055623;28;20431;-73
2023/05/04 01:40:19;;;;;;;13.48;5.05;;;5.50;99.90;;;;;;5053992;28;20061;-73
2023/05/04 01:42:45;;;;;;;15.65;5.65;;;5.50;99.90;;;;;;5052413;28;20080;-74
2023/05/04 01:45:11;;;;;;;14.93;5.90;;;5.50;99.90;;;;;;5052778;28;20045;-71
2023/05/04 01:47:37;;;;;;;18.88;5.57;;;5.50;99.90;;;;;;5053581;28;20045;-72
2023/05/04 01:50:04;;;;;;;15.27;5.82;;;5.50;99.90;;;;;;5053558;28;20401;-74
2023/05/04 01:52:30;;;;;;;16.42;6.05;;;5.50;99.90;;;;;;5054343;28;20053;-73
2023/05/04 01:54:56;;;;;;;17.55;5.47;;;5.50;99.90;;;;;;5052221;28;20048;-73
2023/05/04 01:57:22;;;;;;;17.92;6.32;;;5.50;99.90;;;;;;5053778;28;20365;-72
2023/05/04 01:59:47;;;;;;;19.48;5.35;;;5.50;99.90;;;;;;5054198;28;20056;-73
2023/05/04 02:02:13;;;;;;;15.77;5.18;;;5.50;99.90;;;;;;5053389;28;20045;-72
2023/05/04 02:04:40;;;;;;;17.92;6.05;;;5.50;99.90;;;;;;5053542;28;20053;-71
2023/05/04 02:07:06;;;;;;;17.15;6.22;;;5.50;99.90;;;;;;5053090;28;20053;-73
2023/05/04 02:09:32;;;;;;;24.23;6.65;;;5.50;99.90;;;;;;5053485;28;20489;-72
2023/05/04 02:11:58;;;;;;;19.58;6.53;;;5.50;99.90;;;;;;5053601;28;20045;-73
2023/05/04 02:14:24;;;;;;;19.33;6.53;;;5.50;99.90;;;;;;5053667;28;20103;-73
2023/05/04 02:16:50;;;;;;;18.52;5.85;;;5.50;99.90;;;;;;5052486;28;20041;-73
2023/05/04 02:19:16;;;;;;;22.30;6.82;;;5.50;99.90;;;;;;5056283;28;20084;-74
2023/05/04 02:21:42;;;;;;;18.02;5.45;;;5.50;99.90;;;;;;5057199;28;20068;-73
2023/05/04 02:24:08;;;;;;;18.38;6.45;;;5.50;99.90;;;;;;5061993;28;20052;-72
2023/05/04 02:26:35;;;;;;;22.08;6.00;;;5.50;99.90;;;;;;5064219;28;20409;-73
2023/05/04 02:29:02;;;;;;;19.73;7.03;;;5.50;99.90;;;;;;5063507;28;20053;-73
2023/05/04 02:31:28;;;;;;;17.85;6.38;;;5.50;99.90;;;;;;5064286;28;20498;-72
2023/05/04 02:33:54;;;;;;;21.20;5.97;;;5.50;99.90;;;;;;5062547;28;20378;-73
2023/05/04 02:36:20;;;;;;;18.58;6.45;;;5.50;99.90;;;;;;5075640;28;20037;-73
2023/05/04 02:38:46;;;;;;;20.85;6.72;;;5.60;99.90;;;;;;5058905;28;20063;-73
2023/05/04 02:41:11;;;;;;;21.02;6.82;;;5.60;99.90;;;;;;5062238;28;20096;-72
2023/05/04 02:43:37;;;;;;;21.25;7.10;;;5.50;99.90;;;;;;5061704;28;20171;-73
2023/05/04 02:46:03;;;;;;;18.55;6.43;;;5.50;99.90;;;;;;5059739;28;20049;-73
2023/05/04 02:48:29;;;;;;;19.98;7.63;;;5.50;99.90;;;;;;5058175;28;20049;-71
2023/05/04 02:50:55;;;;;;;20.08;7.28;;;5.50;99.90;;;;;;5060424;28;20049;-73
2023/05/04 02:53:21;;;;;;;22.73;7.15;;;5.60;99.90;;;;;;5042029;28;20072;-73
2023/05/04 02:55:47;;;;;;;24.27;7.63;;;5.60;99.90;;;;;;5058923;28;20045;-74
2023/05/04 02:58:13;;;;;;;23.45;7.55;;;5.50;99.90;;;;;;5057487;28;20109;-72
2023/05/04 03:00:39;;;;;;;19.73;7.35;;;5.60;99.90;;;;;;5057639;28;20049;-74
2023/05/04 03:03:04;;;;;;;21.88;7.25;;;5.60;99.90;;;;;;5055152;28;20053;-72
2023/05/04 03:05:30;;;;;;;24.13;8.10;;;5.60;99.90;;;;;;5055219;28;20186;-71
2023/05/04 03:07:56;;;;;;;19.98;7.03;;;5.60;99.90;;;;;;5057486;28;20148;-72
2023/05/04 03:10:21;;;;;;;21.75;6.95;;;5.60;99.90;;;;;;5057624;28;20496;-72
2023/05/04 03:12:47;;;;;;;24.50;8.25;;;5.60;99.90;;;;;;5055484;28;20045;-72
2023/05/04 03:15:13;;;;;;;26.02;9.02;;;5.60;99.90;;;;;;5056625;28;20084;-72
2023/05/04 03:17:39;;;;;;;25.98;8.13;;;5.60;99.90;;;;;;5056351;28;20056;-74
2023/05/04 03:20:05;;;;;;;23.27;7.78;;;5.60;99.90;;;;;;5055739;28;20044;-72
2023/05/04 03:22:31;;;;;;;25.52;7.57;;;5.60;99.90;;;;;;5056835;28;20056;-73
2023/05/04 03:24:57;;;;;;;22.30;7.85;;;5.70;99.90;;;;;;5056571;28;20044;-73
2023/05/04 03:27:22;;;;;;;19.95;7.18;;;5.70;99.90;;;;;;5055934;28;20488;-73
2023/05/04 03:29:48;;;;;;;24.15;7.40;;;5.70;99.90;;;;;;5056674;28;20041;-73
2023/05/04 03:32:14;;;;;;;25.13;8.02;;;5.70;99.90;;;;;;5055668;28;20132;-74
2023/05/04 03:34:40;;;;;;;27.23;9.50;;;5.70;99.90;;;;;;5055027;28;20066;-73
2023/05/04 03:37:06;;;;;;;20.10;7.43;;;5.70;99.90;;;;;;5055944;28;20044;-74
2023/05/04 03:39:32;;;;;;;24.40;7.97;;;5.70;99.90;;;;;;5056500;28;20105;-73
2023/05/04 03:41:58;;;;;;;24.25;7.57;;;5.60;99.90;;;;;;5056403;28;20119;-74
2023/05/04 03:44:24;;;;;;;23.92;8.07;;;5.70;99.90;;;;;;5055551;28;20049;-75
2023/05/04 03:46:50;;;;;;;25.85;8.38;;;5.60;99.90;;;;;;5054867;28;20044;-74
2023/05/04 03:49:15;;;;;;;28.50;8.30;;;5.70;99.90;;;;;;5056118;28;20098;-74
2023/05/04 03:51:41;;;;;;;26.38;8.88;;;5.60;99.90;;;;;;5056353;28;20087;-73
2023/05/04 03:54:07;;;;;;;24.95;7.97;;;5.60;99.90;;;;;;5055699;28;20055;-73
2023/05/04 03:56:32;;;;;;;21.42;7.45;;;5.60;99.90;;;;;;5056064;28;20040;-74
2023/05/04 03:58:58;;;;;;;23.63;7.93;;;5.60;99.90;;;;;;5056108;28;20128;-74
2023/05/04 04:01:24;;;;;;;27.85;8.88;;;5.40;99.90;;;;;;5055910;28;20041;-73
2023/05/04 04:03:50;;;;;;;22.13;8.32;;;5.50;99.90;;;;;;5054945;28;20044;-73
2023/05/04 04:06:16;;;;;;;28.63;8.25;;;5.50;99.90;;;;;;5055914;28;20047;-74
2023/05/04 04:08:41;;;;;;;29.77;8.93;;;5.50;99.90;;;;;;5055877;28;20124;-73
2023/05/04 04:11:07;;;;;;;26.52;9.90;;;5.50;99.90;;;;;;5056351;28;20052;-73
2023/05/04 04:13:33;;;;;;;26.60;9.13;;;5.50;99.90;;;;;;5054437;28;20068;-74
2023/05/04 04:15:58;;;;;;;28.75;9.13;;;5.50;99.90;;;;;;5057101;28;20045;-73
2023/05/04 04:18:24;;;;;;;28.02;9.38;;;5.50;99.90;;;;;;5057616;28;20051;-73
2023/05/04 04:20:50;;;;;;;24.02;8.73;;;5.50;99.90;;;;;;5058068;28;20052;-72
2023/05/04 04:23:19;;;;;;;27.60;9.60;;;5.50;99.90;;;;;;5058677;28;20148;-73
2023/05/04 04:25:45;;;;;;;24.45;8.35;;;5.50;99.90;;;;;;5055561;28;20045;-74
2023/05/04 04:28:12;;;;;;;26.07;8.43;;;5.50;99.90;;;;;;5054613;28;20048;-73
2023/05/04 04:30:38;;;;;;;24.55;8.65;;;5.50;99.90;;;;;;5054865;28;20755;-74
2023/05/04 04:33:03;;;;;;;25.27;8.32;;;5.50;99.90;;;;;;5055493;28;20048;-74
2023/05/04 04:35:31;;;;;;;27.48;9.10;;;5.60;99.90;;;;;;5055503;28;20080;-73
2023/05/04 04:37:57;;;;;;;23.40;7.72;;;5.60;99.90;;;;;;5055369;28;20069;-73
2023/05/04 04:40:23;;;;;;;24.75;8.68;;;5.60;99.90;;;;;;5054130;28;20059;-74
2023/05/04 04:42:51;;;;;;;28.15;9.77;;;5.60;99.90;;;;;;5055535;28;20052;-73
2023/05/04 04:45:17;;;;;;;25.17;8.90;;;5.60;99.90;;;;;;5055517;28;20049;-72
2023/05/04 04:47:44;;;;;;;27.55;10.45;;;5.60;99.90;;;;;;5055814;28;20075;-73
2023/05/04 04:50:10;;;;;;;42.93;10.50;;;5.60;99.90;;;;;;5054035;28;20048;-73
2023/05/04 04:52:36;;;;;;;31.08;10.77;;;5.70;99.90;;;;;;5055885;28;20319;-74
2023/05/04 04:55:03;;;;;;;31.35;10.32;;;5.70;99.90;;;;;;5054425;28;20112;-72
2023/05/04 04:57:29;;;;;;;34.30;11.00;;;5.70;99.90;;;;;;5053410;28;20045;-74
2023/05/04 04:59:55;;;;;;;33.10;9.68;;;5.70;99.90;;;;;;5037343;28;20040;-75
2023/05/04 05:02:21;;;;;;;35.80;11.73;;;5.80;99.90;;;;;;5054508;28;20055;-72
2023/05/04 05:04:48;;;;;;;32.65;10.63;;;5.80;99.90;;;;;;5053062;28;20492;-73
2023/05/04 05:07:14;;;;;;;26.75;9.50;;;5.80;99.90;;;;;;5054851;28;20041;-73
2023/05/04 05:09:40;;;;;;;27.13;10.00;;;5.90;99.90;;;;;;5054217;28;20044;-74
2023/05/04 05:12:06;;;;;;;29.52;9.68;;;5.90;99.90;;;;;;5055454;28;20048;-73
2023/05/04 05:14:31;;;;;;;32.20;10.02;;;6.00;99.90;;;;;;5037560;28;20047;-70
2023/05/04 05:16:58;;;;;;;32.40;10.65;;;6.10;99.90;;;;;;5054345;28;20037;-73
2023/05/04 05:19:24;;;;;;;28.27;10.17;;;6.00;99.90;;;;;;5055374;28;20072;-73
2023/05/04 05:21:51;;;;;;;32.55;11.32;;;6.10;99.90;;;;;;5054682;28;20048;-73
2023/05/04 05:24:17;;;;;;;31.75;11.10;;;6.20;99.90;;;;;;5053826;28;20203;-73
2023/05/04 05:26:42;;;;;;;26.20;10.50;;;6.20;99.90;;;;;;5054860;28;20049;-72
2023/05/04 05:29:08;;;;;;;33.08;10.77;;;6.30;99.90;;;;;;5053780;28;20037;-72
2023/05/04 05:31:34;;;;;;;31.35;11.35;;;6.30;99.90;;;;;;5055395;28;20049;-73
2023/05/04 05:34:00;;;;;;;34.33;11.25;;;6.40;99.90;;;;;;5055379;28;20375;-71
2023/05/04 05:36:26;;;;;;;33.70;10.77;;;6.50;99.90;;;;;;5054398;28;20128;-73
2023/05/04 05:38:51;;;;;;;28.38;10.20;;;6.60;99.90;;;;;;5054502;28;20168;-72
2023/05/04 05:41:17;;;;;;;30.80;11.40;;;6.70;99.90;;;;;;5052933;28;20084;-72
2023/05/04 05:43:43;;;;;;;28.27;10.45;;;6.80;99.90;;;;;;5052680;28;20447;-72
2023/05/04 05:46:11;;;;;;;28.60;10.25;;;6.90;99.90;;;;;;5052765;28;20127;-73
2023/05/04 05:48:36;;;;;;;32.20;10.90;;;6.90;99.90;;;;;;5053320;28;20041;-72
2023/05/04 05:51:02;;;;;;;30.55;10.88;;;7.00;99.90;;;;;;5052357;28;20051;-73
2023/05/04 05:53:28;;;;;;;31.27;11.73;;;7.10;99.90;;;;;;5056480;28;20037;-72
2023/05/04 05:55:54;;;;;;;31.63;10.98;;;7.10;99.90;;;;;;5057575;28;20537;-72
2023/05/04 05:58:20;;;;;;;32.95;10.90;;;7.20;99.90;;;;;;5058016;28;20048;-71
2023/05/04 06:00:46;;;;;;;33.33;10.63;;;7.30;99.90;;;;;;5056623;28;20440;-72
2023/05/04 06:03:13;;;;;;;31.97;10.93;;;7.40;99.90;;;;;;5057573;28;20098;-72
2023/05/04 06:05:39;;;;;;;26.52;11.07;;;7.50;99.90;;;;;;5039489;28;20049;-73
2023/05/04 06:08:05;;;;;;;31.13;11.23;;;7.60;99.90;;;;;;5057263;28;20045;-73
2023/05/04 06:10:31;;;;;;;33.08;10.80;;;7.60;99.90;;;;;;5057346;28;20076;-72
2023/05/04 06:12:56;;;;;;;30.42;11.48;;;7.70;99.90;;;;;;5057303;28;20094;-72
2023/05/04 06:15:22;;;;;;;30.60;10.80;;;7.80;99.90;;;;;;5056856;28;20053;-72
2023/05/04 06:17:48;;;;;;;32.78;11.13;;;7.80;99.90;;;;;;5057498;28;20048;-72
2023/05/04 06:20:14;;;;;;;33.75;11.85;;;7.90;99.90;;;;;;5056438;28;20057;-72
2023/05/04 06:22:40;;;;;;;30.70;10.73;;;8.00;99.90;;;;;;5056070;28;20049;-71
2023/05/04 06:25:06;;;;;;;31.30;10.00;;;8.10;99.90;;;;;;5057077;28;20049;-72
2023/05/04 06:27:33;;;;;;;30.25;11.32;;;8.20;99.90;;;;;;5055989;28;20094;-72
2023/05/04 06:29:58;;;;;;;31.33;10.63;;;8.30;99.90;;;;;;5057907;28;20072;-72
2023/05/04 06:32:24;;;;;;;32.78;10.90;;;8.30;99.90;;;;;;5056929;28;20084;-70
2023/05/04 06:34:54;;;;;;;25.88;9.93;;;8.40;99.90;;;;;;5055705;28;20045;-72
2023/05/04 06:37:20;;;;;;;32.78;10.88;;;8.50;99.90;;;;;;5057561;28;20044;-72
2023/05/04 06:39:46;;;;;;;37.73;11.20;;;8.60;99.90;;;;;;5056772;28;20055;-74
2023/05/04 06:42:12;;;;;;;31.55;11.43;;;8.70;99.90;;;;;;5056812;28;20132;-72
2023/05/04 06:44:38;;;;;;;27.67;10.77;;;8.70;99.90;;;;;;5055647;28;20500;-72
2023/05/04 06:47:04;;;;;;;29.92;11.27;;;8.80;99.90;;;;;;5055203;28;20045;-72
2023/05/04 06:49:35;;;;;;;37.70;12.07;;;8.90;99.90;;;;;;5056574;28;20036;-75
2023/05/04 06:52:01;;;;;;;29.55;11.40;;;9.00;99.90;;;;;;5059400;28;20149;-71
2023/05/04 06:54:27;;;;;;;36.80;11.65;;;9.10;99.90;;;;;;5059369;28;20147;-72
2023/05/04 06:56:53;;;;;;;36.38;16.73;;;9.30;99.90;;;;;;5059698;28;20067;-71
2023/05/04 06:59:19;;;;;;;31.60;12.23;;;9.40;99.90;;;;;;5056654;28;20099;-73
2023/05/04 07:01:48;;;;;;;30.25;11.02;;;9.60;99.90;;;;;;5057082;28;20041;-72
2023/05/04 07:04:22;;;;;;;36.78;14.73;;;9.80;99.90;;;;;;5056178;28;20128;-72
2023/05/04 07:06:49;;;;;;;31.77;11.85;;;9.90;99.90;;;;;;5060271;28;20128;-73
2023/05/04 07:09:16;;;;;;;32.25;10.32;;;10.10;99.90;;;;;;5057666;28;20037;-72
2023/05/04 07:11:42;;;;;;;24.70;11.00;;;10.30;99.90;;;;;;5056577;28;20084;-74
2023/05/04 07:14:08;;;;;;;32.38;10.80;;;10.40;99.90;;;;;;5056180;28;20047;-71
2023/05/04 07:16:35;;;;;;;27.90;10.77;;;10.50;99.90;;;;;;5055813;28;20045;-73
2023/05/04 07:19:00;;;;;;;30.33;10.60;;;10.60;99.90;;;;;;5056036;28;20045;-73
2023/05/04 07:21:27;;;;;;;30.30;10.85;;;10.70;99.90;;;;;;5055871;28;20090;-71
2023/05/04 07:23:53;;;;;;;36.92;11.70;;;10.80;99.90;;;;;;5055890;28;20053;-72
2023/05/04 07:26:20;;;;;;;33.88;10.98;;;10.90;99.90;;;;;;5038374;28;20052;-72
2023/05/04 07:28:46;;;;;;;30.52;11.55;;;11.00;99.90;;;;;;5054719;28;20393;-73
2023/05/04 07:31:13;;;;;;;30.02;12.07;;;11.00;99.90;;;;;;5055822;28;20603;-73
2023/05/04 07:33:39;;;;;;;27.00;10.80;;;11.10;99.90;;;;;;5055502;28;20519;-72
2023/05/04 07:36:05;;;;;;;26.80;10.93;;;11.20;99.90;;;;;;5055536;28;20094;-73
2023/05/04 07:38:32;;;;;;;26.27;13.67;;;11.30;99.90;;;;;;5054209;28;20061;-70
2023/05/04 07:40:57;;;;;;;25.08;11.20;;;11.20;99.90;;;;;;5056105;28;20395;-72
2023/05/04 07:43:23;;;;;;;31.58;11.32;;;11.40;99.90;;;;;;5055511;28;20116;-72
2023/05/04 07:45:52;;;;;;;27.90;11.43;;;11.60;99.90;;;;;;5054950;28;20045;-72
2023/05/04 07:48:18;;;;;;;29.23;11.80;;;11.70;99.90;;;;;;5061157;28;20098;-71
2023/05/04 07:50:44;;;;;;;25.73;10.90;;;11.70;99.90;;;;;;5060557;28;20052;-73
2023/05/04 07:53:10;;;;;;;27.65;11.35;;;11.80;99.90;;;;;;5056732;28;20037;-72
2023/05/04 07:55:35;;;;;;;31.27;11.60;;;11.80;99.90;;;;;;5057105;28;20520;-74
2023/05/04 07:58:01;;;;;;;33.00;12.07;;;11.80;99.90;;;;;;5057306;28;20084;-73
2023/05/04 08:00:27;;;;;;;27.83;11.13;;;11.80;99.90;;;;;;5057989;28;20060;-73
2023/05/04 08:02:53;;;;;;;28.92;12.25;;;11.90;99.90;;;;;;5058858;28;20131;-73
2023/05/04 08:05:19;;;;;;;29.17;11.77;;;12.00;99.90;;;;;;5058071;28;20048;-73
2023/05/04 08:07:45;;;;;;;26.33;11.13;;;12.00;99.90;;;;;;5054878;28;20049;-74
2023/05/04 08:10:11;;;;;;;36.70;12.82;;;12.10;99.90;;;;;;5055501;28;20056;-72
2023/05/04 08:12:39;;;;;;;33.05;11.80;;;12.10;99.90;;;;;;5055119;28;20053;-72
2023/05/04 08:15:06;;;;;;;26.52;10.80;;;12.20;99.90;;;;;;5054004;28;20127;-73
2023/05/04 08:17:33;;;;;;;24.65;10.68;;;12.40;99.90;;;;;;5054957;28;20041;-73
2023/05/04 08:20:00;;;;;;;;;;;12.60;99.90;;;;;;5054070;28;20532;-72
2023/05/04 08:22:25;;;;;;;25.10;10.80;;;12.80;99.90;;;;;;5054928;28;19920;-73
2023/05/04 08:24:51;;;;;;;30.38;11.35;;;12.80;99.90;;;;;;5054599;28;20124;-73
2023/05/04 08:27:17;;;;;;;28.17;10.30;;;13.00;99.90;;;;;;5054679;28;20040;-72
2023/05/04 08:29:43;;;;;;;27.00;10.25;;;13.10;99.90;;;;;;5054586;28;20052;-73
2023/05/04 08:32:09;;;;;;;30.42;10.95;;;13.20;99.90;;;;;;5057049;28;20049;-72
2023/05/04 08:34:35;;;;;;;25.02;10.40;;;13.30;99.90;;;;;;5056429;28;20040;-70
2023/05/04 08:37:01;;;;;;;24.00;10.60;;;13.30;99.90;;;;;;5036999;28;20037;-74
2023/05/04 08:39:27;;;;;;;24.63;10.55;;;13.30;99.90;;;;;;5054364;28;20070;-72
2023/05/04 08:41:53;;;;;;;23.95;10.32;;;13.40;99.90;;;;;;5054440;28;20045;-71
2023/05/04 08:44:20;;;;;;;25.88;10.15;;;13.60;99.90;;;;;;5054447;28;20111;-72
2023/05/04 08:46:52;;;;;;;25.17;10.45;;;13.70;99.90;;;;;;5054936;28;20045;-73
2023/05/04 08:49:22;;;;;;;27.63;11.82;;;13.80;99.90;;;;;;5054288;28;20044;-73
2023/05/04 08:51:49;;;;;;;24.05;10.10;;;13.80;99.90;;;;;;5054909;28;20049;-73
2023/05/04 08:54:16;;;;;;;26.92;10.68;;;13.90;99.90;;;;;;5036663;28;20115;-72
2023/05/04 08:56:43;;;;;;;25.20;11.98;;;13.90;99.90;;;;;;5054113;28;20132;-71
2023/05/04 08:59:11;;;;;;;;;;;13.70;99.90;;;;;;5054530;28;20041;-73
2023/05/04 09:01:37;;;;;;;24.92;10.43;;;13.70;99.90;;;;;;5053562;28;19983;-73
2023/05/04 09:04:03;;;;;;;23.98;10.38;;;13.80;99.90;;;;;;5054094;28;20049;-72
2023/05/04 09:06:30;;;;;;;22.60;10.10;;;13.80;99.90;;;;;;5054023;28;20049;-72
2023/05/04 09:08:56;;;;;;;24.83;10.23;;;13.80;99.90;;;;;;5053939;28;20106;-72
2023/05/04 09:11:22;;;;;;;22.13;10.75;;;13.90;99.90;;;;;;5036354;28;20044;-73
2023/05/04 09:13:48;;;;;;;26.35;10.27;;;14.00;99.90;;;;;;5053915;28;20485;-72
2023/05/04 09:16:15;;;;;;;22.67;10.25;;;14.10;99.90;;;;;;5053821;28;20037;-73
2023/05/04 09:18:43;;;;;;;21.45;9.82;;;14.20;99.90;;;;;;5052865;28;20049;-73
2023/05/04 09:21:10;;;;;;;24.40;10.23;;;14.40;99.90;;;;;;5053677;28;20056;-73
2023/05/04 09:23:50;;;;;;;22.65;10.45;;;14.50;99.90;;;;;;5052537;28;20132;-71
2023/05/04 09:26:36;;;;;;;22.42;10.00;;;14.60;99.90;;;;;;5054200;28;20045;-72
2023/05/04 09:29:14;;;;;;;26.00;10.55;;;14.80;99.90;;;;;;5036001;28;20103;-72
2023/05/04 09:31:50;;;;;;;20.98;9.63;;;14.80;99.90;;;;;;5054364;28;20099;-72
2023/05/04 09:34:19;;;;;;;25.33;10.43;;;14.80;99.90;;;;;;5054053;28;20041;-73
2023/05/04 09:36:45;;;;;;;22.60;9.98;;;14.80;99.90;;;;;;5053942;28;20350;-74
2023/05/04 09:39:11;;;;;;;24.60;9.53;;;14.90;99.90;;;;;;5053293;28;20156;-72
2023/05/04 09:41:37;;;;;;;21.70;9.50;;;15.00;99.90;;;;;;5053149;28;20513;-72
2023/05/04 09:44:03;;;;;;;20.45;8.70;;;15.10;99.90;;;;;;5053322;28;20052;-72
2023/05/04 09:46:29;;;;;;;27.55;9.02;;;15.30;99.90;;;;;;5036210;28;20041;-72
2023/05/04 09:48:56;;;;;;;23.00;9.48;;;15.40;99.90;;;;;;5054061;28;20067;-74
2023/05/04 09:51:23;;;;;;;22.50;9.27;;;15.50;99.90;;;;;;5053427;28;20076;-73
2023/05/04 09:53:50;;;;;;;22.38;9.73;;;15.60;99.90;;;;;;5053337;28;20292;-72
2023/05/04 09:56:16;;;;;;;;;;;15.70;99.90;;;;;;5053699;28;20045;-71
2023/05/04 09:58:44;;;;;;;21.17;8.60;;;15.70;99.90;;;;;;5053345;28;19921;-72
2023/05/04 10:01:10;;;;;;;25.70;8.73;;;15.70;99.90;;;;;;5053231;28;20468;-70
2023/05/04 10:03:36;;;;;;;21.23;9.10;;;15.80;99.90;;;;;;5052326;28;20103;-72
2023/05/04 10:06:04;;;;;;;16.58;8.27;;;15.90;99.90;;;;;;5053989;28;20064;-72
2023/05/04 10:08:31;;;;;;;20.42;8.68;;;16.00;99.90;;;;;;5052833;28;20103;-75
2023/05/04 10:10:57;;;;;;;21.92;9.00;;;16.20;99.80;;;;;;5053789;28;20053;-73
2023/05/04 10:13:24;;;;;;;15.97;8.40;;;16.20;99.30;;;;;;5052176;28;20049;-71
2023/05/04 10:16:14;;;;;;;16.98;8.77;;;16.20;99.30;;;;;;5053220;28;20307;-72
2023/05/04 10:19:14;;;;;;;17.15;8.85;;;16.30;99.50;;;;;;5053726;28;20450;-73
2023/05/04 10:22:14;;;;;;;19.30;8.38;;;16.50;99.70;;;;;;5051980;28;20049;-72
2023/05/04 10:25:19;;;;;;;20.77;8.00;;;16.60;99.00;;;;;;5051383;28;20060;-73
2023/05/04 10:28:00;;;;;;;21.13;9.43;;;16.70;98.50;;;;;;5053917;28;20045;-73
2023/05/04 10:30:27;;;;;;;16.17;7.57;;;16.70;98.90;;;;;;5053238;28;20255;-71
2023/05/04 10:32:56;;;;;;;20.83;8.93;;;16.80;98.20;;;;;;5052986;28;20040;-73
2023/05/04 10:35:23;;;;;;;17.13;8.10;;;16.80;97.50;;;;;;5052762;28;20481;-72
2023/05/04 10:37:53;;;;;;;18.70;8.20;;;16.80;97.80;;;;;;5053673;28;20057;-73
2023/05/04 10:40:38;;;;;;;17.85;7.35;;;16.80;98.10;;;;;;5055185;28;20065;-72
2023/05/04 10:43:06;;;;;;;15.18;6.93;;;16.90;97.70;;;;;;5056968;28;20049;-74
2023/05/04 10:45:39;;;;;;;20.48;6.97;;;16.90;97.50;;;;;;5056760;28;20053;-73
2023/05/04 10:48:06;;;;;;;17.45;7.80;;;17.00;97.10;;;;;;5056617;28;20079;-73
2023/05/04 10:50:48;;;;;;;17.98;7.47;;;17.10;97.20;;;;;;5057090;28;20048;-72
2023/05/04 10:53:15;;;;;;;17.30;7.50;;;17.10;96.60;;;;;;5056664;28;20044;-72
2023/05/04 10:55:47;;;;;;;19.13;7.55;;;17.20;96.50;;;;;;5056648;28;22039;-72
2023/05/04 10:58:15;;;;;;;18.45;7.47;;;17.20;95.90;;;;;;5039517;28;20067;-73
2023/05/04 11:00:44;;;;;;;13.05;6.55;;;17.40;96.50;;;;;;5056299;28;20053;-73
2023/05/04 11:03:13;;;;;;;12.73;6.22;;;17.60;95.10;;;;;;5039263;28;20048;-73
2023/05/04 11:05:41;;;;;;;16.45;6.25;;;17.60;94.30;;;;;;5056080;28;20048;-73
2023/05/04 11:08:16;;;;;;;14.70;6.80;;;17.70;93.50;;;;;;5072012;28;20052;-72
2023/05/04 11:10:43;;;;;;;18.05;6.50;;;17.80;93.50;;;;;;5055458;28;20130;-73
2023/05/04 11:13:12;;;;;;;13.23;5.63;;;17.90;93.10;;;;;;5038377;28;20057;-74
2023/05/04 11:15:49;;;;;;;12.23;5.78;;;17.90;92.60;;;;;;5054667;28;20048;-73
2023/05/04 11:18:24;;;;;;;13.98;5.80;;;17.80;93.10;;;;;;5055034;28;20106;-74
2023/05/04 11:20:50;;;;;;;13.30;6.18;;;17.90;93.10;;;;;;5054876;28;20501;-73
2023/05/04 11:23:15;;;;;;;16.23;6.75;;;18.10;93.30;;;;;;5055802;28;20084;-73
2023/05/04 11:25:41;;;;;;;15.05;5.70;;;18.20;93.00;;;;;;5038204;28;20134;-73
2023/05/04 11:28:07;;;;;;;10.52;4.55;;;18.30;92.60;;;;;;5054722;28;20055;-72
2023/05/04 11:30:34;;;;;;;11.80;4.75;;;18.40;91.70;;;;;;5054795;28;20132;-75
2023/05/04 11:33:01;;;;;;;16.05;5.30;;;18.40;91.00;;;;;;5055676;28;20084;-74
2023/05/04 11:35:27;;;;;;;12.65;5.45;;;18.40;91.90;;;;;;5056154;28;20132;-73
2023/05/04 11:37:54;;;;;;;12.40;5.03;;;18.50;91.70;;;;;;5055742;28;20132;-73
2023/05/04 11:40:24;;;;;;;9.50;4.80;;;18.50;91.30;;;;;;5055088;28;20053;-79
2023/05/04 11:42:55;;;;;;;9.65;4.57;;;18.60;90.80;;;;;;5054910;28;20127;-73
2023/05/04 11:45:29;;;;;;;11.23;4.65;;;18.70;90.80;;;;;;5055417;28;20045;-73
2023/05/04 11:47:56;;;;;;;10.20;4.63;;;18.60;90.70;;;;;;5055505;28;20049;-72
2023/05/04 11:50:23;;;;;;;14.48;4.05;;;18.60;91.10;;;;;;5055303;28;20089;-73
2023/05/04 11:52:49;;;;;;;15.52;5.43;;;18.70;90.30;;;;;;5055331;28;20071;-74
2023/05/04 11:55:29;;;;;;;15.27;4.80;;;18.70;90.30;;;;;;5055230;28;20095;-73
2023/05/04 11:58:09;;;;;;;10.38;4.68;;;18.70;90.50;;;;;;5054321;28;20049;-73
2023/05/04 12:00:38;;;;;;;11.82;4.40;;;18.90;90.00;;;;;;5055774;28;20036;-74
2023/05/04 12:03:16;;;;;;;9.43;4.18;;;18.90;90.30;;;;;;5055174;28;20053;-72
2023/05/04 12:05:56;;;;;;;12.70;4.60;;;18.90;88.30;;;;;;5055106;28;20040;-75
2023/05/04 12:08:30;;;;;;;11.35;5.13;;;19.00;88.20;;;;;;5054956;28;20041;-73
2023/05/04 12:11:25;;;;;;;12.70;4.63;;;18.90;89.30;;;;;;5055071;28;20131;-76
2023/05/04 12:14:05;;;;;;;8.73;4.63;;;18.80;88.70;;;;;;5055581;28;20045;-73
2023/05/04 12:16:32;;;;;;;11.10;4.13;;;18.70;89.10;;;;;;5037896;28;20068;-73
2023/05/04 12:19:12;;;;;;;9.70;3.80;;;18.80;89.40;;;;;;5054797;28;20056;-73
2023/05/04 12:21:52;;;;;;;10.00;4.72;;;18.80;88.50;;;;;;5055326;28;20187;-73
2023/05/04 12:24:21;;;;;;;10.25;4.30;;;19.00;88.00;;;;;;5055481;28;20045;-74
2023/05/04 12:26:47;;;;;;;11.75;4.68;;;19.00;89.10;;;;;;5053643;28;20583;-73
2023/05/04 12:29:13;;;;;;;10.40;4.40;;;19.00;89.10;;;;;;5054957;28;20092;-74
2023/05/04 12:31:38;;;;;;;8.37;4.57;;;19.10;89.60;;;;;;5053339;28;20037;-75
2023/05/04 12:34:04;;;;;;;10.88;4.57;;;19.20;88.10;;;;;;5055357;28;20099;-72
2023/05/04 12:36:30;;;;;;;9.57;4.73;;;19.20;87.70;;;;;;5054678;28;20527;-72
2023/05/04 12:38:55;;;;;;;11.33;4.03;;;19.20;87.00;;;;;;5054546;28;20076;-74
2023/05/04 12:41:22;;;;;;;11.43;4.30;;;19.10;86.60;;;;;;5054815;28;20079;-74
2023/05/04 12:43:48;;;;;;;11.80;5.00;;;19.10;86.00;;;;;;5054412;28;20048;-73